createdAt,value
2018-12-18T00:00:38.080Z,81.10
2018-12-18T00:03:05.703Z,81.20
2018-12-18T00:05:35.178Z,80.90
2018-12-18T00:08:03.056Z,81.00
2018-12-18T00:10:36.344Z,80.70
2018-12-18T00:13:04.385Z,81.40
2018-12-18T00:15:32.007Z,81.80
2018-12-18T00:18:05.249Z,82.10
2018-12-18T00:23:05.597Z,82.30
2018-12-18T00:25:33.390Z,82.30
2018-12-18T00:28:00.991Z,82.30
2018-12-18T00:30:28.677Z,82.20
2018-12-18T00:32:56.480Z,82.00
2018-12-18T00:35:24.102Z,81.80
2018-12-18T00:40:20.771Z,81.60
2018-12-18T00:42:49.065Z,81.20
2018-12-18T00:45:16.881Z,80.80
2018-12-18T00:50:12.501Z,80.40
2018-12-18T00:52:40.211Z,80.60
2018-12-18T00:55:08.582Z,81.20
2018-12-18T01:02:33.010Z,81.30
2018-12-18T01:05:00.613Z,81.50
2018-12-18T01:07:28.219Z,81.20
2018-12-18T01:09:55.908Z,80.70
2018-12-18T01:19:48.426Z,81.50
2018-12-18T01:24:43.871Z,81.20
2018-12-18T01:29:39.083Z,81.30
2018-12-18T02:01:41.522Z,79.40
2018-12-18T02:06:36.828Z,79.50
2018-12-18T02:09:06.031Z,79.40
2018-12-18T02:14:01.290Z,79.20
2018-12-18T02:16:28.974Z,79.40
2018-12-18T02:26:19.833Z,79.90
2018-12-18T02:43:34.176Z,78.20
2018-12-18T02:46:01.944Z,78.00
2018-12-18T02:48:29.725Z,78.20
2018-12-18T02:50:57.324Z,78.40
2018-12-18T02:53:25.120Z,78.30
2018-12-18T02:55:52.720Z,78.40
2018-12-18T03:00:48.394Z,78.50
2018-12-18T03:03:16.283Z,78.60
2018-12-18T03:10:39.579Z,79.10
2018-12-18T03:13:07.187Z,79.30
2018-12-18T03:15:34.988Z,78.90
2018-12-18T03:18:02.708Z,78.80
2018-12-18T03:20:30.337Z,78.80
2018-12-18T03:25:25.750Z,79.00
2018-12-18T03:27:53.390Z,78.90
2018-12-18T03:30:21.047Z,79.10
2018-12-18T03:32:49.273Z,79.40
2018-12-18T03:35:18.536Z,79.90
2018-12-18T03:37:46.261Z,80.50
2018-12-18T03:40:14.547Z,80.70
2018-12-18T03:42:42.113Z,79.50
2018-12-18T03:45:09.869Z,79.50
2018-12-18T03:47:37.590Z,79.50
2018-12-18T03:50:05.822Z,79.80
2018-12-18T03:52:33.606Z,80.00
2018-12-18T03:55:01.250Z,80.00
2018-12-18T03:57:28.892Z,79.90
2018-12-18T04:00:01.354Z,79.60
2018-12-18T04:02:28.952Z,79.70
2018-12-18T04:04:56.595Z,79.90
2018-12-18T04:07:24.431Z,79.70
2018-12-18T04:09:52.433Z,79.60
2018-12-18T04:17:18.863Z,80.30
2018-12-18T04:19:46.486Z,80.20
2018-12-18T04:22:14.293Z,80.70
2018-12-18T04:24:42.180Z,80.70
2018-12-18T04:32:05.109Z,80.40
2018-12-18T04:34:32.693Z,81.10
2018-12-18T04:39:28.267Z,80.90
2018-12-18T04:41:55.887Z,81.20
2018-12-18T04:44:23.604Z,80.90
2018-12-18T04:46:52.535Z,81.20
2018-12-18T04:51:48.850Z,81.40
2018-12-18T04:59:13.072Z,84.50
2018-12-18T05:04:08.562Z,81.30
2018-12-18T05:06:36.529Z,82.20
2018-12-18T05:09:06.636Z,82.30
2018-12-18T05:14:01.993Z,80.80
2018-12-18T05:16:29.615Z,80.90
2018-12-18T05:18:57.241Z,80.80
2018-12-18T05:23:53.288Z,81.30
2018-12-18T05:26:20.903Z,81.50
2018-12-18T05:28:49.014Z,81.50
2018-12-18T05:31:16.720Z,81.50
2018-12-18T05:33:44.337Z,81.40
2018-12-18T05:36:12.159Z,81.40
2018-12-18T05:43:35.493Z,81.20
2018-12-18T05:46:03.105Z,81.10
2018-12-18T05:55:54.226Z,82.00
2018-12-18T05:58:21.924Z,81.00
2018-12-18T06:03:18.037Z,81.00
2018-12-18T06:05:45.836Z,81.30
2018-12-18T06:08:13.458Z,81.50
2018-12-18T06:10:41.315Z,81.40
2018-12-18T06:13:09.124Z,81.30
2018-12-18T06:15:36.709Z,81.30
2018-12-18T06:18:04.290Z,81.30
2018-12-18T06:22:59.853Z,83.60
2018-12-18T06:25:27.455Z,81.30
2018-12-18T06:27:55.200Z,81.60
2018-12-18T06:30:23.037Z,81.50
2018-12-18T06:32:50.681Z,81.60
2018-12-18T06:35:18.925Z,81.80
2018-12-18T06:37:46.617Z,81.80
2018-12-18T06:40:14.406Z,81.90
2018-12-18T06:45:09.703Z,82.10
2018-12-18T06:47:37.381Z,81.90
2018-12-18T06:50:05.553Z,82.00
2018-12-18T06:52:33.128Z,82.00
2018-12-18T06:55:00.743Z,81.90
2018-12-18T06:57:28.570Z,82.00
2018-12-18T07:02:23.895Z,81.90
2018-12-18T07:04:51.739Z,82.00
2018-12-18T07:09:47.101Z,82.20
2018-12-18T07:12:15.008Z,82.10
2018-12-18T07:14:42.664Z,82.00
2018-12-18T07:17:10.392Z,82.10
2018-12-18T07:22:05.886Z,82.40
2018-12-18T07:29:28.778Z,82.30
2018-12-18T07:34:24.205Z,82.70
2018-12-18T07:36:51.836Z,82.60
2018-12-18T07:41:47.505Z,82.80
2018-12-18T07:54:09.009Z,83.10
2018-12-18T07:56:36.846Z,83.00
2018-12-18T08:01:32.072Z,83.10
2018-12-18T08:06:27.425Z,83.10
2018-12-18T08:11:23.455Z,83.40
2018-12-18T08:40:58.967Z,83.80
2018-12-18T08:43:26.871Z,83.90
2018-12-18T08:48:22.851Z,83.90
2018-12-18T08:58:15.135Z,83.90
2018-12-18T09:00:43.103Z,84.00
2018-12-18T09:05:43.189Z,84.10
2018-12-18T09:08:08.083Z,83.90
2018-12-18T09:13:05.737Z,83.90
2018-12-18T09:15:39.166Z,83.90
2018-12-18T09:18:06.773Z,83.70
2018-12-18T09:20:34.401Z,83.70
2018-12-18T09:23:02.302Z,83.80
2018-12-18T09:25:29.885Z,84.10
2018-12-18T09:32:52.847Z,84.10
2018-12-18T09:35:20.502Z,83.90
2018-12-18T09:37:51.026Z,84.20
2018-12-18T09:40:21.288Z,84.20
2018-12-18T09:42:57.354Z,84.20
2018-12-18T09:45:25.178Z,84.20
2018-12-18T09:47:52.792Z,84.40
2018-12-18T09:50:20.529Z,84.50
2018-12-18T09:52:49.021Z,84.60
2018-12-18T09:55:16.634Z,84.70
2018-12-18T09:57:50.050Z,84.90
2018-12-18T10:00:18.047Z,84.90
2018-12-18T10:02:45.719Z,84.80
2018-12-18T10:05:13.921Z,84.90
2018-12-18T10:07:41.509Z,84.90
2018-12-18T10:10:09.107Z,84.90
2018-12-18T10:17:37.884Z,84.50
2018-12-18T10:20:06.716Z,84.20
2018-12-18T10:22:34.320Z,83.80
2018-12-18T10:25:01.959Z,84.90
2018-12-18T10:27:29.705Z,83.60
2018-12-18T10:29:58.207Z,84.10
2018-12-18T10:32:25.824Z,84.30
2018-12-18T10:34:53.697Z,84.30
2018-12-18T10:37:21.323Z,84.20
2018-12-18T10:39:49.462Z,84.00
2018-12-18T10:42:17.472Z,84.10
2018-12-18T10:44:45.163Z,84.30
2018-12-18T10:47:13.454Z,85.20
2018-12-18T10:49:41.192Z,84.30
2018-12-18T10:52:08.812Z,84.20
2018-12-18T10:54:36.411Z,84.30
2018-12-18T10:59:31.885Z,83.80
2018-12-18T11:02:01.514Z,84.00
2018-12-18T11:04:29.320Z,83.70
2018-12-18T11:06:57.549Z,83.30
2018-12-18T11:09:25.886Z,83.20
2018-12-18T11:11:53.743Z,83.30
2018-12-18T11:16:50.024Z,83.40
2018-12-18T11:19:18.389Z,83.40
2018-12-18T11:24:13.588Z,83.40
2018-12-18T11:26:41.442Z,83.50
2018-12-18T11:29:09.046Z,83.50
2018-12-18T11:31:36.730Z,83.30
2018-12-18T11:34:04.651Z,83.30
2018-12-18T11:36:32.273Z,83.40
2018-12-18T11:41:27.613Z,84.00
2018-12-18T11:43:55.218Z,84.10
2018-12-18T11:46:22.936Z,84.20
2018-12-18T11:48:50.543Z,84.10
2018-12-18T11:51:18.721Z,83.60
2018-12-18T11:53:46.351Z,83.00
2018-12-18T11:56:13.950Z,83.00
2018-12-18T11:58:41.967Z,83.20
2018-12-18T12:03:37.183Z,83.40
2018-12-18T12:13:28.175Z,83.60
2018-12-18T12:18:23.503Z,83.80
2018-12-18T12:20:51.264Z,83.50
2018-12-18T12:25:48.258Z,83.40
2018-12-18T12:28:15.963Z,83.30
2018-12-18T12:30:43.553Z,82.70
2018-12-18T12:33:11.183Z,82.40
2018-12-18T12:35:38.886Z,82.20
2018-12-18T12:38:06.484Z,82.00
2018-12-18T12:40:34.096Z,82.10
2018-12-18T12:45:29.573Z,82.80
2018-12-18T12:47:58.783Z,82.80
2018-12-18T12:50:26.723Z,82.70
2018-12-18T12:52:54.315Z,82.70
2018-12-18T12:55:21.906Z,83.00
2018-12-18T12:57:49.657Z,82.90
2018-12-18T13:00:19.020Z,83.10
2018-12-18T13:02:46.612Z,83.00
2018-12-18T13:05:14.372Z,82.70
2018-12-18T13:07:41.982Z,83.00
2018-12-18T13:10:09.627Z,83.30
2018-12-18T13:15:05.395Z,82.40
2018-12-18T13:17:33.004Z,82.40
2018-12-18T13:20:00.719Z,82.70
2018-12-18T13:27:23.704Z,81.80
2018-12-18T13:29:51.501Z,81.90
2018-12-18T13:34:48.084Z,81.90
2018-12-18T13:39:43.291Z,81.90
2018-12-18T13:42:10.978Z,81.90
2018-12-18T13:44:38.582Z,81.90
2018-12-18T13:49:33.943Z,81.40
2018-12-18T13:52:01.535Z,81.20
2018-12-18T13:54:31.063Z,83.60
2018-12-18T13:56:59.769Z,81.40
2018-12-18T14:01:55.095Z,81.20
2018-12-18T14:04:22.960Z,81.20
2018-12-18T14:11:46.756Z,82.10
2018-12-18T14:14:14.415Z,82.30
2018-12-18T14:21:37.450Z,82.00
2018-12-18T14:41:20.530Z,82.10
2018-12-18T14:48:43.853Z,82.30
2018-12-18T14:51:11.432Z,82.30
2018-12-18T14:53:39.037Z,82.20
2018-12-18T14:56:06.740Z,82.20
2018-12-18T14:58:34.393Z,82.00
2018-12-18T15:03:29.793Z,81.90
2018-12-18T15:05:57.380Z,82.10
2018-12-18T15:08:25.017Z,82.20
2018-12-18T15:10:52.769Z,82.20
2018-12-18T15:13:20.378Z,82.20
2018-12-18T15:15:49.002Z,82.80
2018-12-18T15:18:16.688Z,82.20
2018-12-18T15:20:44.274Z,82.30
2018-12-18T15:23:11.859Z,82.10
2018-12-18T15:25:39.624Z,82.10
2018-12-18T15:28:07.273Z,82.00
2018-12-18T15:30:34.896Z,82.00
2018-12-18T15:33:02.603Z,82.00
2018-12-18T15:35:30.631Z,81.90
2018-12-18T15:37:58.408Z,81.90
2018-12-18T15:40:26.376Z,81.80
2018-12-18T15:42:53.950Z,81.70
2018-12-18T15:45:21.557Z,81.60
2018-12-18T15:47:50.086Z,81.70
2018-12-18T15:52:46.952Z,81.70
2018-12-18T15:55:14.810Z,81.80
2018-12-18T15:57:42.396Z,81.80
2018-12-18T16:00:10.110Z,81.60
2018-12-18T16:02:37.795Z,81.50
2018-12-18T16:05:05.626Z,81.20
2018-12-18T16:07:33.286Z,80.90
2018-12-18T16:12:28.949Z,80.70
2018-12-18T16:14:56.549Z,80.90
2018-12-18T16:19:51.921Z,81.20
2018-12-18T16:22:20.249Z,81.30
2018-12-18T16:27:15.804Z,81.20
2018-12-18T16:29:43.389Z,81.00
2018-12-18T16:32:11.170Z,80.80
2018-12-18T16:34:38.769Z,80.60
2018-12-18T16:39:34.170Z,80.50
2018-12-18T16:42:02.198Z,80.70
2018-12-18T16:44:29.795Z,80.80
2018-12-18T16:46:57.510Z,80.50
2018-12-18T16:49:25.110Z,80.00
2018-12-18T16:51:52.669Z,79.70
2018-12-18T16:54:20.735Z,79.40
2018-12-18T16:59:17.145Z,82.10
2018-12-18T17:01:45.447Z,79.30
2018-12-18T17:04:13.108Z,79.20
2018-12-18T17:06:40.717Z,79.30
2018-12-18T17:09:08.543Z,79.50
2018-12-18T17:14:04.934Z,79.30
2018-12-18T17:16:32.621Z,79.10
2018-12-18T17:19:00.235Z,78.70
2018-12-18T17:21:28.857Z,78.40
2018-12-18T17:23:56.667Z,78.00
2018-12-18T17:26:24.264Z,77.90
2018-12-18T17:28:51.838Z,77.70
2018-12-18T17:31:19.743Z,77.50
2018-12-18T17:33:47.517Z,77.50
2018-12-18T17:36:15.318Z,77.50
2018-12-18T17:38:43.117Z,76.90
2018-12-18T17:41:10.725Z,77.80
2018-12-18T17:43:39.020Z,78.30
2018-12-18T17:46:06.804Z,78.80
2018-12-18T17:48:34.452Z,78.60
2018-12-18T17:51:05.793Z,78.20
2018-12-18T17:53:33.687Z,77.20
2018-12-18T17:56:01.744Z,77.00
2018-12-18T17:58:29.379Z,77.10
2018-12-18T18:00:57.220Z,77.10
2018-12-18T18:03:24.831Z,77.10
2018-12-18T18:05:52.655Z,76.90
2018-12-18T18:10:49.794Z,77.10
2018-12-18T18:13:17.721Z,77.40
2018-12-18T18:15:45.725Z,77.40
2018-12-18T18:18:13.480Z,77.20
2018-12-18T18:20:41.169Z,76.80
2018-12-18T18:23:08.882Z,76.60
2018-12-18T18:25:36.598Z,76.40
2018-12-18T18:30:31.939Z,76.00
2018-12-18T18:32:59.656Z,76.20
2018-12-18T18:35:27.397Z,76.80
2018-12-18T18:37:55.253Z,77.10
2018-12-18T18:40:22.845Z,77.10
2018-12-18T18:42:50.510Z,76.70
2018-12-18T18:45:18.847Z,76.10
2018-12-18T18:47:46.466Z,77.00
2018-12-18T18:50:14.227Z,76.10
2018-12-18T18:57:37.256Z,75.00
2018-12-18T19:02:34.149Z,74.90
2018-12-18T19:07:30.522Z,74.90
2018-12-18T19:12:25.717Z,75.80
2018-12-18T19:14:53.660Z,76.40
2018-12-18T19:19:49.532Z,76.70
2018-12-18T19:24:45.655Z,75.90
2018-12-18T19:27:13.265Z,75.70
2018-12-18T19:29:41.125Z,75.60
2018-12-18T19:32:08.710Z,75.80
2018-12-18T19:34:36.301Z,75.70
2018-12-18T19:37:04.552Z,75.40
2018-12-18T19:39:32.512Z,75.00
2018-12-18T19:46:55.651Z,74.70
2018-12-18T20:01:41.908Z,74.00
2018-12-18T20:09:06.692Z,74.10
2018-12-18T20:11:34.389Z,74.80
2018-12-18T20:18:58.378Z,74.30
2018-12-18T20:23:54.958Z,73.90
2018-12-18T20:26:22.664Z,73.60
2018-12-18T20:28:50.608Z,73.90
2018-12-18T20:36:15.055Z,73.80
2018-12-18T20:43:38.141Z,74.10
2018-12-18T20:53:30.128Z,75.10
2018-12-18T20:55:57.958Z,75.20
2018-12-18T20:58:25.923Z,75.30
2018-12-18T21:00:53.511Z,75.10
2018-12-18T21:05:49.759Z,75.30
2018-12-18T21:08:23.198Z,76.00
2018-12-18T21:10:49.046Z,75.20
2018-12-18T21:13:22.371Z,75.30
2018-12-18T21:15:49.953Z,75.40
2018-12-18T21:18:17.750Z,76.00
2018-12-18T21:20:46.341Z,77.40
2018-12-18T21:23:13.985Z,75.60
2018-12-18T21:25:41.635Z,75.70
2018-12-18T21:28:09.467Z,75.70
2018-12-18T21:30:37.072Z,75.60
2018-12-18T21:35:32.986Z,75.80
2018-12-18T21:38:00.645Z,75.70
2018-12-18T21:40:28.274Z,75.40
2018-12-18T21:42:56.073Z,75.50
2018-12-18T21:45:23.661Z,75.60
2018-12-18T21:47:51.245Z,76.20
2018-12-18T21:50:19.929Z,76.20
2018-12-18T21:52:47.593Z,76.80
2018-12-18T21:55:15.272Z,76.40
2018-12-18T21:57:43.069Z,77.00
2018-12-18T22:00:13.013Z,77.10
2018-12-18T22:02:40.822Z,76.50
2018-12-18T22:05:08.679Z,77.10
2018-12-18T22:07:36.293Z,77.30
2018-12-18T22:10:05.235Z,77.50
2018-12-18T22:12:32.974Z,77.50
2018-12-18T22:17:28.187Z,77.00
2018-12-18T22:19:55.913Z,77.60
2018-12-18T22:24:51.188Z,77.10
2018-12-18T22:27:19.320Z,77.00
2018-12-18T22:29:46.909Z,77.60
2018-12-18T22:32:14.521Z,77.30
2018-12-18T22:34:42.212Z,77.50
2018-12-18T22:37:09.855Z,77.50
2018-12-18T22:39:37.414Z,77.50
2018-12-18T22:42:05.797Z,77.50
2018-12-18T22:44:33.384Z,77.50
2018-12-18T22:47:00.997Z,77.50
2018-12-18T22:49:28.797Z,77.50
2018-12-18T22:51:56.362Z,78.10
2018-12-18T22:54:24.010Z,77.30
2018-12-18T22:59:19.817Z,77.50
2018-12-18T23:01:47.518Z,77.60
2018-12-18T23:06:43.019Z,77.90
2018-12-18T23:16:38.202Z,77.60
2018-12-18T23:19:06.367Z,77.80
2018-12-18T23:24:01.780Z,77.90
2018-12-18T23:26:29.481Z,77.90
2018-12-18T23:28:57.105Z,77.90
2018-12-18T23:31:24.849Z,78.00
2018-12-18T23:33:52.534Z,78.20
2018-12-18T23:38:48.061Z,78.30
2018-12-18T23:41:15.751Z,78.30
2018-12-18T23:43:43.348Z,78.30
2018-12-18T23:46:10.969Z,78.20
2018-12-18T23:48:39.818Z,78.30
2018-12-18T23:51:07.978Z,78.40
2018-12-18T23:53:35.552Z,78.50
2018-12-18T23:56:03.429Z,78.50
2018-12-18T23:58:31.047Z,78.60
